KUIN/UIN METAR and TAF weather

Enter ICAO airport designator
Station Type Date Time Source
KUIN METAR 2019/10/15 03:54 UTC NOAA

KUIN 150354Z AUTO 14009KT 10SM CLR 13/03 A2995 RMK AO2 SLP143 T01280028


Station Type Date Time Source
KUIN Decoded METAR 2019/10/15 03:54 UTC NOAA

QUINCY MUNI. BALDWIN FIELD, IL, United States (KUIN) 39-56N 091-12W
Oct 14, 2019 - 11:54 PM EDT / 2019.10.15 0354 UTC
Wind: from the SE (140 degrees) at 10 MPH (9 KT):0
Visibility: 10 mile(s):0
Sky conditions: clear
Temperature: 55.0 F (12.8 C)
Dew Point: 37.0 F (2.8 C)
Relative Humidity: 50%
Pressure (altimeter): 29.95 in. Hg (1014 hPa)
ob: KUIN 150354Z AUTO 14009KT 10SM CLR 13/03 A2995 RMK AO2 SLP143 T01280028
cycle: 4

Station Type Date Time Source
KUIN TAF 2019/10/14 18:30 UTC NOAA

TAF KUIN 141727Z 1418/1518 17005KT P6SM SKC
FM150800 18009KT P6SM VCSH BKN035 WS020/23040KT
FM151200 21009KT P6SM BKN028
FM151600 25011KT P6SM BKN040

Example: see airport list